Oak Bowery, Mississippi
Current Conditions -  °F | °C
As of 4:55 PM on Thursday 18 Dec 2014 (Local Time) from KPIB Reporting Station
Broken Clouds Broken Clouds  
Wind Chill: 46°   Ceiling: 300
Heat Index: 48°   Visibility: 4mi
Dew Point: 45°   Wind: 5mph
Humidity: 87%   Direction: 50°NE
Pressure: 30.14"   Gusts: NA
Location:  31.5533°N, 89.2322°W
Report Text: KPIB 182255Z AUTO 05004KT 4SM BKN003 BKN029 09/07 A3014 RMK AO1 P0002
Loading
Personal Weather Stations






























Interactive Weather Map New forecast layout! Learn more

10-Day Weather Forecast

Advertisements
Track Severe Weather on mobile